createdAt,value
2018-11-04T00:00:29.811Z,56.9
2018-11-04T00:01:30.542Z,53.7
2018-11-04T00:02:31.248Z,58.5
2018-11-04T00:03:32.211Z,57.0
2018-11-04T00:04:32.922Z,56.7
2018-11-04T00:05:33.637Z,54.7
2018-11-04T00:06:34.349Z,59.4
2018-11-04T00:07:35.069Z,56.2
2018-11-04T00:08:35.791Z,57.7
2018-11-04T00:09:36.509Z,60.4
2018-11-04T00:10:37.225Z,58.8
2018-11-04T00:11:37.947Z,55.5
2018-11-04T00:12:38.664Z,59.5
2018-11-04T00:13:39.381Z,61.4
2018-11-04T00:14:40.101Z,55.9
2018-11-04T00:15:40.824Z,62.1
2018-11-04T00:16:41.528Z,57.0
2018-11-04T00:17:42.250Z,55.0
2018-11-04T00:18:42.989Z,57.9
2018-11-04T00:19:44.673Z,59.2
2018-11-04T00:20:46.666Z,58.1
2018-11-04T00:21:48.194Z,54.0
2018-11-04T00:22:49.841Z,58.5
2018-11-04T00:23:51.858Z,58.7
2018-11-04T00:24:53.224Z,57.1
2018-11-04T00:25:55.234Z,60.4
2018-11-04T00:26:57.315Z,54.9
2018-11-04T00:27:58.854Z,56.5
2018-11-04T00:29:00.551Z,60.5
2018-11-04T00:30:02.353Z,65.0
2018-11-04T00:31:03.990Z,61.3
2018-11-04T00:32:05.946Z,64.7
2018-11-04T00:33:07.939Z,59.2
2018-11-04T00:34:09.881Z,63.0
2018-11-04T00:35:12.178Z,66.1
2018-11-04T00:36:13.898Z,63.6
2018-11-04T00:37:15.697Z,64.3
2018-11-04T00:38:17.165Z,61.4
2018-11-04T00:39:19.090Z,64.5
2018-11-04T00:40:20.544Z,63.7
2018-11-04T00:41:22.406Z,65.5
2018-11-04T00:42:24.239Z,65.7
2018-11-04T00:43:26.912Z,65.2
2018-11-04T00:44:28.580Z,89.3
2018-11-04T00:45:31.102Z,71.6
2018-11-04T00:46:32.593Z,64.3
2018-11-04T00:47:34.236Z,65.8
2018-11-04T00:48:35.823Z,61.7
2018-11-04T00:49:37.270Z,63.2
2018-11-04T00:50:39.827Z,65.9
2018-11-04T00:51:40.743Z,66.0
2018-11-04T00:52:42.882Z,63.1
2018-11-04T00:53:44.750Z,64.6
2018-11-04T00:54:45.776Z,62.8
2018-11-04T00:55:47.862Z,66.4
2018-11-04T00:56:49.510Z,65.5
2018-11-04T00:57:51.227Z,65.4
2018-11-04T00:58:53.280Z,64.7
2018-11-04T00:59:54.915Z,65.1
2018-11-04T01:00:57.027Z,64.0
2018-11-04T01:01:58.814Z,59.1
2018-11-04T01:03:00.936Z,69.5
2018-11-04T01:04:02.917Z,60.6
2018-11-04T01:05:05.239Z,64.4
2018-11-04T01:06:06.954Z,66.3
2018-11-04T01:07:08.855Z,64.3
2018-11-04T01:08:10.907Z,64.5
2018-11-04T01:09:12.324Z,61.9
2018-11-04T01:10:13.892Z,64.6
2018-11-04T01:11:16.171Z,68.3
2018-11-04T01:12:17.409Z,68.3
2018-11-04T01:13:19.349Z,66.6
2018-11-04T01:14:21.324Z,66.1
2018-11-04T01:15:23.478Z,69.7
2018-11-04T01:16:24.393Z,68.7
2018-11-04T01:17:26.512Z,69.7
2018-11-04T01:18:28.405Z,66.7
2018-11-04T01:19:30.465Z,67.3
2018-11-04T01:20:32.394Z,74.6
2018-11-04T01:21:34.655Z,68.4
2018-11-04T01:22:36.666Z,72.6
2018-11-04T01:23:38.115Z,68.1
2018-11-04T01:24:40.438Z,74.4
2018-11-04T01:25:42.016Z,73.6
2018-11-04T01:26:44.247Z,65.5
2018-11-04T01:27:46.266Z,71.1
2018-11-04T01:28:48.163Z,74.3
2018-11-04T01:29:50.442Z,65.2
2018-11-04T01:30:52.405Z,77.1
2018-11-04T01:31:54.049Z,68.1
2018-11-04T01:32:55.824Z,72.0
2018-11-04T01:33:57.873Z,71.7
2018-11-04T01:35:00.451Z,69.0
2018-11-04T01:36:02.220Z,74.4
2018-11-04T01:37:04.154Z,76.6
2018-11-04T01:38:06.262Z,72.9
2018-11-04T01:39:08.298Z,69.7
2018-11-04T01:40:10.621Z,74.1
2018-11-04T01:41:12.401Z,77.4
2018-11-04T01:42:14.240Z,72.2
2018-11-04T01:44:18.326Z,79.3
2018-11-04T01:45:19.876Z,68.0
2018-11-04T01:46:21.580Z,72.8
2018-11-04T01:47:23.903Z,67.9
2018-11-04T01:48:25.772Z,72.2
2018-11-04T01:49:27.822Z,69.1
2018-11-04T01:50:29.994Z,79.3
2018-11-04T01:51:31.348Z,73.1
2018-11-04T01:52:32.818Z,74.8
2018-11-04T01:53:35.347Z,78.6
2018-11-04T01:54:36.946Z,75.5
2018-11-04T01:55:38.721Z,70.7
2018-11-04T01:56:40.866Z,72.3
2018-11-04T01:57:42.925Z,75.0
2018-11-04T01:58:45.507Z,76.2
2018-11-04T01:59:46.617Z,78.6
2018-11-04T02:00:48.028Z,72.0
2018-11-04T02:01:50.016Z,67.7
2018-11-04T02:02:52.388Z,76.2
2018-11-04T02:03:54.496Z,72.5
2018-11-04T02:04:56.730Z,81.9
2018-11-04T02:05:58.645Z,79.6
2018-11-04T02:06:59.862Z,79.0
2018-11-04T02:08:01.364Z,80.6
2018-11-04T02:09:03.225Z,76.8
2018-11-04T02:10:05.024Z,76.4
2018-11-04T02:11:07.068Z,76.6
2018-11-04T02:12:08.719Z,79.2
2018-11-04T02:13:10.899Z,77.4
2018-11-04T02:14:12.026Z,72.9
2018-11-04T02:15:14.348Z,77.2
2018-11-04T02:16:15.240Z,76.2
2018-11-04T02:17:15.963Z,76.2
2018-11-04T02:18:16.669Z,76.0
2018-11-04T02:19:17.397Z,70.6
2018-11-04T02:20:18.110Z,75.8
2018-11-04T02:21:18.815Z,71.4
2018-11-04T02:22:19.537Z,69.5
2018-11-04T02:23:20.257Z,73.1
2018-11-04T02:24:21.228Z,67.4
2018-11-04T02:25:22.000Z,79.1
2018-11-04T02:26:22.725Z,68.0
2018-11-04T02:27:23.436Z,76.1
2018-11-04T02:28:24.154Z,76.1
2018-11-04T02:29:24.936Z,76.0
2018-11-04T02:30:25.653Z,73.3
2018-11-04T02:31:26.368Z,74.0
2018-11-04T02:32:27.079Z,70.3
2018-11-04T02:33:27.799Z,72.4
2018-11-04T02:34:28.517Z,74.6
2018-11-04T02:35:29.227Z,70.5
2018-11-04T02:36:29.943Z,67.4
2018-11-04T02:37:30.661Z,76.5
2018-11-04T02:38:31.377Z,76.2
2018-11-04T02:39:32.350Z,68.1
2018-11-04T02:40:33.060Z,65.0
2018-11-04T02:41:33.785Z,77.0
2018-11-04T02:42:34.504Z,78.7
2018-11-04T02:43:35.219Z,72.6
2018-11-04T02:44:35.932Z,69.5
2018-11-04T02:45:36.649Z,66.4
2018-11-04T02:46:37.367Z,73.4
2018-11-04T02:47:38.092Z,68.7
2018-11-04T02:48:38.821Z,82.5
2018-11-04T02:49:39.547Z,70.8
2018-11-04T02:50:40.253Z,83.9
2018-11-04T02:51:41.034Z,74.3
2018-11-04T02:52:41.742Z,78.0
2018-11-04T02:53:42.474Z,72.1
2018-11-04T02:54:43.192Z,76.7
2018-11-04T02:55:43.905Z,72.2
2018-11-04T02:56:44.622Z,77.2
2018-11-04T02:57:45.331Z,79.3
2018-11-04T02:58:46.089Z,74.1
2018-11-04T02:59:46.801Z,76.9
2018-11-04T03:00:47.522Z,86.7
2018-11-04T03:01:48.266Z,81.4
2018-11-04T03:02:49.011Z,81.3
2018-11-04T03:03:49.727Z,75.8
2018-11-04T03:04:50.453Z,81.4
2018-11-04T03:05:51.156Z,76.5
2018-11-04T03:06:51.871Z,78.6
2018-11-04T03:07:52.647Z,74.9
2018-11-04T03:08:53.369Z,77.9
2018-11-04T03:09:54.342Z,80.2
2018-11-04T03:10:55.061Z,77.3
2018-11-04T03:11:55.775Z,76.9
2018-11-04T03:12:56.492Z,83.0
2018-11-04T03:13:57.467Z,76.1
2018-11-04T03:14:58.177Z,79.1
2018-11-04T03:15:58.897Z,76.8
2018-11-04T03:16:59.616Z,77.7
2018-11-04T03:18:00.336Z,78.6
2018-11-04T03:19:01.045Z,85.8
2018-11-04T03:20:01.767Z,82.8
2018-11-04T03:21:02.488Z,79.5
2018-11-04T03:22:03.212Z,76.9
2018-11-04T03:23:03.926Z,80.7
2018-11-04T03:24:04.638Z,79.0
2018-11-04T03:25:05.410Z,80.0
2018-11-04T03:26:06.124Z,76.6
2018-11-04T03:27:06.841Z,80.4
2018-11-04T03:28:07.587Z,79.2
2018-11-04T03:29:08.301Z,81.9
2018-11-04T03:30:09.032Z,76.5
2018-11-04T03:31:09.739Z,78.9
2018-11-04T03:32:10.697Z,80.4
2018-11-04T03:33:11.408Z,70.8
2018-11-04T03:34:12.145Z,74.6
2018-11-04T03:35:12.855Z,79.6
2018-11-04T03:36:13.574Z,76.4
2018-11-04T03:37:14.289Z,81.9
2018-11-04T03:38:14.997Z,81.9
2018-11-04T03:39:15.705Z,77.2
2018-11-04T03:40:16.429Z,75.7
2018-11-04T03:41:17.151Z,85.6
2018-11-04T03:42:17.862Z,81.1
2018-11-04T03:43:18.583Z,82.7
2018-11-04T03:44:19.300Z,76.8
2018-11-04T03:45:20.014Z,77.2
2018-11-04T03:46:20.737Z,78.4
2018-11-04T03:47:21.471Z,76.5
2018-11-04T03:48:22.438Z,78.0
2018-11-04T03:49:23.149Z,76.9
2018-11-04T03:50:23.905Z,78.4
2018-11-04T03:51:24.578Z,78.8
2018-11-04T03:52:25.599Z,79.1
2018-11-04T03:53:26.321Z,81.3
2018-11-04T03:54:27.044Z,78.7
2018-11-04T03:55:27.749Z,79.3
2018-11-04T03:56:28.462Z,79.2
2018-11-04T03:57:29.187Z,79.1
2018-11-04T03:58:29.899Z,78.4
2018-11-04T03:59:30.616Z,82.4
2018-11-04T04:00:31.346Z,82.9
2018-11-04T04:01:32.057Z,77.7
2018-11-04T04:02:32.773Z,81.0
2018-11-04T04:03:33.492Z,84.9
2018-11-04T04:04:34.212Z,84.6
2018-11-04T04:05:34.922Z,81.9
2018-11-04T04:06:35.648Z,74.9
2018-11-04T04:07:36.373Z,76.0
2018-11-04T04:08:37.090Z,77.2
2018-11-04T04:09:37.809Z,82.2
2018-11-04T04:10:38.519Z,84.2
2018-11-04T04:11:39.233Z,72.8
2018-11-04T04:12:39.953Z,80.7
2018-11-04T04:13:40.677Z,84.5
2018-11-04T04:14:41.390Z,83.1
2018-11-04T04:15:42.102Z,80.6
2018-11-04T04:16:42.816Z,82.5
2018-11-04T04:17:43.586Z,85.2
2018-11-04T04:18:44.293Z,81.6
2018-11-04T04:19:45.030Z,78.0
2018-11-04T04:20:45.724Z,80.3
2018-11-04T04:21:46.435Z,89.8
2018-11-04T04:22:47.205Z,89.2
2018-11-04T04:23:47.915Z,83.5
2018-11-04T04:24:48.628Z,84.5
2018-11-04T04:25:49.346Z,79.3
2018-11-04T04:26:50.061Z,81.8
2018-11-04T04:27:50.774Z,87.8
2018-11-04T04:28:51.534Z,83.6
2018-11-04T04:29:52.240Z,78.5
2018-11-04T04:30:52.962Z,80.8
2018-11-04T04:31:53.672Z,84.3
2018-11-04T04:32:54.405Z,88.3
2018-11-04T04:33:55.118Z,90.4
2018-11-04T04:34:55.835Z,87.3
2018-11-04T04:35:56.566Z,92.4
2018-11-04T04:36:57.273Z,90.3
2018-11-04T04:37:58.000Z,83.6
2018-11-04T04:38:58.714Z,86.8
2018-11-04T04:39:59.486Z,86.0
2018-11-04T04:41:00.196Z,86.3
2018-11-04T04:42:00.914Z,83.8
2018-11-04T04:43:01.873Z,82.6
2018-11-04T04:44:02.843Z,88.5
2018-11-04T04:45:03.618Z,87.5
2018-11-04T04:46:04.331Z,82.1
2018-11-04T04:47:05.057Z,85.3
2018-11-04T04:48:05.776Z,87.1
2018-11-04T04:49:06.494Z,80.9
2018-11-04T04:50:07.270Z,81.2
2018-11-04T04:51:07.976Z,82.7
2018-11-04T04:52:08.695Z,86.4
2018-11-04T04:53:09.410Z,92.5
2018-11-04T04:54:10.129Z,91.4
2018-11-04T04:55:10.841Z,87.3
2018-11-04T04:56:11.558Z,93.2
2018-11-04T04:57:12.267Z,92.7
2018-11-04T04:58:12.997Z,89.9
2018-11-04T04:59:13.800Z,89.7
2018-11-04T05:00:14.779Z,88.7
2018-11-04T05:01:16.032Z,90.3
2018-11-04T05:02:16.980Z,92.3
2018-11-04T05:03:17.939Z,88.0
2018-11-04T05:04:18.773Z,91.3
2018-11-04T05:05:20.014Z,90.2
2018-11-04T05:06:20.841Z,87.4
2018-11-04T05:07:21.805Z,91.8
2018-11-04T05:08:23.065Z,90.6
2018-11-04T05:09:23.867Z,93.6
2018-11-04T05:10:24.725Z,86.2
2018-11-04T05:11:25.949Z,85.2
2018-11-04T05:12:26.835Z,91.2
2018-11-04T05:13:28.017Z,90.6
2018-11-04T05:14:28.948Z,89.3
2018-11-04T05:15:29.797Z,88.5
2018-11-04T05:16:30.969Z,88.1
2018-11-04T05:17:31.805Z,87.8
2018-11-04T05:18:32.992Z,91.2
2018-11-04T05:19:33.877Z,87.8
2018-11-04T05:20:34.993Z,90.1
2018-11-04T05:21:35.763Z,92.0
2018-11-04T05:22:36.875Z,84.9
2018-11-04T05:23:38.032Z,88.6
2018-11-04T05:24:38.974Z,89.2
2018-11-04T05:25:39.765Z,88.7
2018-11-04T05:26:40.820Z,85.7
2018-11-04T05:27:41.943Z,88.6
2018-11-04T05:28:42.751Z,88.5
2018-11-04T05:29:43.957Z,89.6
2018-11-04T05:30:44.751Z,86.8
2018-11-04T05:31:45.567Z,84.6
2018-11-04T05:32:46.316Z,77.6
2018-11-04T05:33:47.439Z,92.2
2018-11-04T05:34:48.301Z,83.8
2018-11-04T05:35:49.435Z,88.0
2018-11-04T05:36:50.229Z,91.0
2018-11-04T05:37:50.988Z,87.5
2018-11-04T05:38:51.767Z,85.1
2018-11-04T05:39:53.005Z,87.2
2018-11-04T05:40:53.953Z,86.2
2018-11-04T05:41:54.773Z,87.1
2018-11-04T05:42:55.996Z,92.9
2018-11-04T05:43:56.833Z,88.5
2018-11-04T05:44:58.059Z,81.3
2018-11-04T05:45:59.046Z,84.5
2018-11-04T05:46:59.927Z,88.9
2018-11-04T05:48:00.765Z,83.7
2018-11-04T05:49:01.561Z,86.2
2018-11-04T05:50:02.314Z,90.1
2018-11-04T05:51:03.508Z,87.0
2018-11-04T05:52:04.312Z,85.9
2018-11-04T05:53:05.907Z,86.1
2018-11-04T05:54:06.743Z,92.8
2018-11-04T05:55:07.540Z,91.5
2018-11-04T05:56:08.320Z,85.0
2018-11-04T05:57:09.435Z,90.2
2018-11-04T05:58:10.280Z,121.2
2018-11-04T05:59:11.044Z,96.1
2018-11-04T06:00:11.818Z,89.1
2018-11-04T06:01:12.918Z,88.4
2018-11-04T06:02:13.791Z,84.5
2018-11-04T06:03:14.549Z,87.5
2018-11-04T06:04:15.334Z,85.6
2018-11-04T06:05:16.430Z,77.9
2018-11-04T06:06:17.236Z,86.6
2018-11-04T06:07:18.036Z,89.2
2018-11-04T06:08:18.852Z,88.7
2018-11-04T06:09:19.754Z,87.6
2018-11-04T06:10:20.922Z,90.3
2018-11-04T06:11:21.778Z,89.4
2018-11-04T06:12:23.060Z,81.5
2018-11-04T06:13:23.901Z,81.9
2018-11-04T06:14:24.875Z,86.1
2018-11-04T06:15:26.424Z,87.7
2018-11-04T06:16:27.258Z,83.6
2018-11-04T06:17:28.795Z,82.3
2018-11-04T06:18:30.766Z,82.9
2018-11-04T06:19:33.080Z,75.1
2018-11-04T06:20:34.976Z,80.3
2018-11-04T06:21:37.213Z,84.6
2018-11-04T06:22:39.280Z,88.3
2018-11-04T06:23:41.358Z,87.4
2018-11-04T06:24:43.853Z,178.0
2018-11-04T06:25:46.009Z,98.3
2018-11-04T06:26:47.973Z,92.6
2018-11-04T06:27:50.066Z,84.7
2018-11-04T06:28:51.505Z,81.5
2018-11-04T06:29:52.476Z,76.8
2018-11-04T06:30:53.309Z,82.5
2018-11-04T06:31:54.553Z,81.0
2018-11-04T06:32:55.396Z,87.4
2018-11-04T06:33:56.256Z,89.7
2018-11-04T06:34:57.888Z,93.4
2018-11-04T06:35:58.717Z,91.8
2018-11-04T06:36:59.973Z,80.6
2018-11-04T06:38:00.903Z,88.1
2018-11-04T06:39:01.765Z,90.3
2018-11-04T06:40:03.014Z,89.0
2018-11-04T06:41:03.873Z,78.5
2018-11-04T06:42:04.828Z,84.7
2018-11-04T06:43:06.085Z,92.8
2018-11-04T06:44:06.941Z,90.1
2018-11-04T06:45:07.785Z,94.7
2018-11-04T06:46:09.026Z,85.0
2018-11-04T06:47:10.154Z,84.4
2018-11-04T06:48:10.804Z,85.5
2018-11-04T06:49:12.025Z,85.4
2018-11-04T06:50:12.875Z,96.0
2018-11-04T06:51:14.070Z,89.5
2018-11-04T06:52:14.965Z,84.6
2018-11-04T06:53:15.860Z,89.8
2018-11-04T06:54:16.779Z,82.7
2018-11-04T06:55:18.008Z,84.2
2018-11-04T06:56:18.826Z,83.7
2018-11-04T06:57:20.005Z,84.9
2018-11-04T06:58:20.829Z,86.1
2018-11-04T06:59:22.066Z,82.3
2018-11-04T07:00:22.899Z,88.3
2018-11-04T07:01:23.997Z,83.1
2018-11-04T07:02:24.771Z,82.8
2018-11-04T07:03:25.543Z,87.2
2018-11-04T07:04:26.380Z,89.9
2018-11-04T07:05:27.485Z,90.2
2018-11-04T07:06:28.298Z,88.9
2018-11-04T07:07:29.463Z,90.5
2018-11-04T07:08:30.404Z,87.5
2018-11-04T07:09:31.268Z,89.9
2018-11-04T07:10:32.238Z,91.6
2018-11-04T07:11:33.485Z,93.2
2018-11-04T07:12:34.325Z,90.7
2018-11-04T07:13:35.544Z,84.7
2018-11-04T07:14:36.384Z,90.2
2018-11-04T07:15:37.363Z,93.1
2018-11-04T07:16:38.324Z,85.0
2018-11-04T07:17:39.575Z,86.2
2018-11-04T07:18:40.436Z,93.7
2018-11-04T07:19:41.403Z,79.5
2018-11-04T07:20:42.247Z,85.9
2018-11-04T07:21:43.463Z,87.3
2018-11-04T07:22:44.309Z,81.1
2018-11-04T07:23:45.547Z,83.6
2018-11-04T07:24:46.512Z,83.5
2018-11-04T07:25:47.469Z,83.9
2018-11-04T07:26:48.277Z,80.5
2018-11-04T07:27:49.461Z,83.6
2018-11-04T07:28:50.315Z,86.6
2018-11-04T07:29:51.270Z,85.5
2018-11-04T07:30:52.482Z,88.7
2018-11-04T07:31:53.373Z,84.1
2018-11-04T07:32:54.406Z,82.2
2018-11-04T07:33:55.524Z,85.8
2018-11-04T07:34:56.364Z,91.0
2018-11-04T07:35:57.491Z,87.1
2018-11-04T07:36:58.263Z,92.1
2018-11-04T07:37:59.060Z,92.5
2018-11-04T07:38:59.971Z,89.8
2018-11-04T07:40:00.747Z,90.5
2018-11-04T07:41:01.989Z,90.3
2018-11-04T07:42:02.811Z,94.4
2018-11-04T07:43:04.058Z,90.8
2018-11-04T07:44:04.994Z,90.0
2018-11-04T07:45:05.789Z,89.6
2018-11-04T07:46:06.865Z,83.2
2018-11-04T07:47:07.968Z,98.9
2018-11-04T07:48:08.784Z,90.5
2018-11-04T07:49:10.025Z,92.4
2018-11-04T07:50:10.899Z,91.7
2018-11-04T07:51:11.767Z,94.3
2018-11-04T07:52:13.037Z,94.1
2018-11-04T07:53:13.856Z,84.0
2018-11-04T07:54:15.011Z,84.4
2018-11-04T07:55:15.793Z,87.0
2018-11-04T07:56:16.918Z,91.9
2018-11-04T07:57:17.737Z,88.2
2018-11-04T07:58:18.931Z,86.4
2018-11-04T07:59:19.841Z,82.3
2018-11-04T08:00:20.730Z,86.2
2018-11-04T08:01:21.981Z,85.8
2018-11-04T08:02:22.880Z,84.2
2018-11-04T08:03:23.799Z,86.7
2018-11-04T08:04:25.014Z,81.9
2018-11-04T08:05:25.837Z,85.8
2018-11-04T08:06:27.060Z,88.9
2018-11-04T08:07:28.514Z,86.0
2018-11-04T08:08:29.359Z,94.3
2018-11-04T08:09:30.226Z,88.5
2018-11-04T08:10:31.474Z,93.3
2018-11-04T08:11:32.303Z,93.9
2018-11-04T08:12:33.250Z,96.2
2018-11-04T08:13:34.595Z,86.3
2018-11-04T08:14:35.369Z,84.8
2018-11-04T08:15:36.590Z,86.8
2018-11-04T08:16:37.404Z,88.9
2018-11-04T08:17:38.523Z,86.9
2018-11-04T08:18:39.339Z,84.7
2018-11-04T08:19:40.915Z,87.0
2018-11-04T08:20:41.980Z,84.4
2018-11-04T08:21:42.778Z,82.0
2018-11-04T08:22:44.027Z,80.0
2018-11-04T08:23:44.853Z,77.0
2018-11-04T08:24:45.829Z,80.0
2018-11-04T08:25:47.076Z,84.3
2018-11-04T08:26:47.912Z,87.9
2018-11-04T08:27:48.837Z,91.2
2018-11-04T08:28:50.001Z,91.5
2018-11-04T08:29:51.227Z,81.9
2018-11-04T08:30:52.367Z,83.2
2018-11-04T08:31:53.278Z,88.9
2018-11-04T08:32:54.395Z,89.3
2018-11-04T08:33:55.523Z,90.7
2018-11-04T08:34:56.315Z,87.7
2018-11-04T08:35:57.446Z,83.4
2018-11-04T08:36:58.296Z,88.5
2018-11-04T08:37:59.391Z,91.1
2018-11-04T08:39:00.524Z,88.3
2018-11-04T08:40:01.432Z,81.0
2018-11-04T08:41:02.465Z,81.1
2018-11-04T08:42:03.302Z,83.7
2018-11-04T08:43:04.326Z,87.3
2018-11-04T08:44:05.449Z,86.8
2018-11-04T08:45:06.242Z,90.6
2018-11-04T08:46:07.290Z,82.1
2018-11-04T08:47:08.504Z,82.0
2018-11-04T08:48:09.281Z,79.8
2018-11-04T08:49:10.395Z,83.2
2018-11-04T08:50:11.530Z,86.0
2018-11-04T08:51:12.304Z,86.7
2018-11-04T08:52:13.475Z,87.6
2018-11-04T08:53:14.280Z,89.2
2018-11-04T08:54:15.461Z,83.9
2018-11-04T08:55:16.258Z,81.3
2018-11-04T08:56:17.043Z,80.7
2018-11-04T08:57:17.800Z,90.4
2018-11-04T08:58:18.994Z,85.5
2018-11-04T08:59:19.791Z,83.8
2018-11-04T09:00:20.897Z,88.6
2018-11-04T09:01:22.025Z,80.8
2018-11-04T09:02:22.821Z,82.2
2018-11-04T09:03:23.927Z,80.5
2018-11-04T09:04:24.744Z,78.1
2018-11-04T09:05:25.541Z,82.1
2018-11-04T09:06:26.370Z,79.6
2018-11-04T09:07:27.446Z,82.1
2018-11-04T09:08:28.244Z,80.6
2018-11-04T09:09:29.460Z,82.4
2018-11-04T09:10:30.263Z,76.6
2018-11-04T09:11:31.050Z,78.2
2018-11-04T09:12:31.810Z,85.2
2018-11-04T09:13:32.951Z,77.2
2018-11-04T09:14:33.803Z,83.6
2018-11-04T09:15:35.019Z,80.8
2018-11-04T09:16:35.798Z,79.9
2018-11-04T09:17:36.896Z,78.9
2018-11-04T09:18:38.001Z,82.6
2018-11-04T09:19:38.796Z,79.1
2018-11-04T09:20:39.900Z,78.4
2018-11-04T09:21:41.103Z,76.8
2018-11-04T09:22:41.863Z,78.5
2018-11-04T09:23:42.991Z,75.7
2018-11-04T09:24:43.760Z,77.2
2018-11-04T09:25:44.803Z,83.2
2018-11-04T09:26:45.990Z,82.5
2018-11-04T09:27:46.798Z,80.0
2018-11-04T09:28:47.896Z,76.0
2018-11-04T09:29:48.928Z,79.2
2018-11-04T09:30:51.344Z,77.3
2018-11-04T09:31:52.310Z,77.1
2018-11-04T09:32:53.465Z,75.7
2018-11-04T09:33:54.318Z,70.6
2018-11-04T09:34:55.630Z,79.4
2018-11-04T09:35:56.800Z,81.3
2018-11-04T09:36:57.353Z,76.8
2018-11-04T09:37:58.315Z,77.7
2018-11-04T09:38:59.563Z,78.7
2018-11-04T09:40:00.431Z,80.7
2018-11-04T09:41:01.282Z,79.3
2018-11-04T09:42:02.234Z,76.9
2018-11-04T09:43:03.432Z,76.4
2018-11-04T09:44:04.401Z,77.2
2018-11-04T09:45:05.554Z,81.1
2018-11-04T09:46:06.360Z,81.9
2018-11-04T09:47:07.469Z,75.9
2018-11-04T09:48:08.258Z,74.9
2018-11-04T09:49:09.406Z,71.0
2018-11-04T09:50:10.531Z,68.7
2018-11-04T09:51:11.329Z,69.0
2018-11-04T09:52:12.371Z,70.7
2018-11-04T09:53:13.527Z,64.0
2018-11-04T09:54:14.338Z,65.6
2018-11-04T09:55:15.436Z,70.6
2018-11-04T09:56:16.350Z,66.7
2018-11-04T09:57:17.438Z,65.7
2018-11-04T09:58:18.539Z,61.5
2018-11-04T09:59:19.323Z,63.5
2018-11-04T10:00:20.431Z,62.8
2018-11-04T10:01:21.277Z,62.7
2018-11-04T10:02:22.387Z,65.0
2018-11-04T10:03:23.245Z,60.9
2018-11-04T10:04:24.335Z,61.4
2018-11-04T10:05:25.556Z,61.3
2018-11-04T10:06:26.360Z,59.6
2018-11-04T10:07:27.274Z,59.7
2018-11-04T10:08:28.303Z,57.0
2018-11-04T10:09:29.524Z,57.1
2018-11-04T10:10:30.425Z,56.5
2018-11-04T10:11:31.948Z,52.2
2018-11-04T10:12:33.035Z,53.8
2018-11-04T10:13:33.806Z,50.0
2018-11-04T10:14:35.008Z,48.8
2018-11-04T10:15:35.844Z,54.2
2018-11-04T10:16:37.413Z,55.3
2018-11-04T10:17:38.574Z,49.0
2018-11-04T10:18:39.447Z,49.1
2018-11-04T10:19:40.615Z,46.6
2018-11-04T10:20:41.608Z,46.6
2018-11-04T10:21:42.576Z,43.6
2018-11-04T10:22:43.892Z,43.5
2018-11-04T10:23:44.802Z,42.4
2018-11-04T10:24:46.089Z,43.9
2018-11-04T10:25:47.989Z,43.5
2018-11-04T10:26:49.962Z,44.5
2018-11-04T10:27:51.546Z,43.4
2018-11-04T10:28:53.057Z,41.2
2018-11-04T10:29:53.983Z,41.3
2018-11-04T10:30:54.839Z,40.8
2018-11-04T10:31:56.224Z,38.5
2018-11-04T10:32:58.120Z,37.1
2018-11-04T10:33:59.273Z,36.8
2018-11-04T10:35:00.242Z,37.5
2018-11-04T10:36:01.290Z,36.8
2018-11-04T10:37:02.533Z,37.5
2018-11-04T10:38:03.368Z,36.6
2018-11-04T10:39:04.567Z,36.4
2018-11-04T10:40:05.459Z,54.2
2018-11-04T10:41:06.323Z,35.0
2018-11-04T10:42:07.614Z,34.4
2018-11-04T10:43:08.398Z,34.4
2018-11-04T10:44:09.268Z,35.3
2018-11-04T10:45:10.558Z,34.1
2018-11-04T10:46:11.456Z,34.8
2018-11-04T10:47:12.346Z,33.3
2018-11-04T10:48:13.290Z,33.4
2018-11-04T10:49:14.493Z,31.3
2018-11-04T10:50:15.341Z,33.0
2018-11-04T10:51:16.265Z,32.6
2018-11-04T10:52:17.486Z,32.1
2018-11-04T10:53:18.312Z,32.6
2018-11-04T10:54:19.553Z,29.4
2018-11-04T10:55:20.381Z,30.7
2018-11-04T10:56:21.323Z,30.3
2018-11-04T10:57:22.512Z,30.5
2018-11-04T10:58:23.764Z,30.1
2018-11-04T10:59:24.996Z,30.2
2018-11-04T11:00:25.834Z,29.4
2018-11-04T11:01:26.731Z,29.8
2018-11-04T11:02:28.011Z,29.6
2018-11-04T11:03:28.832Z,28.0
2018-11-04T11:04:30.100Z,28.3
2018-11-04T11:05:30.891Z,29.9
2018-11-04T11:06:31.751Z,29.3
2018-11-04T11:07:33.070Z,29.4
2018-11-04T11:08:34.023Z,28.6
2018-11-04T11:09:34.877Z,28.4
2018-11-04T11:10:35.746Z,28.9
2018-11-04T11:11:36.996Z,28.2
2018-11-04T11:12:37.828Z,28.8
2018-11-04T11:13:38.763Z,30.6
2018-11-04T11:14:39.986Z,27.9
2018-11-04T11:15:40.867Z,27.7
2018-11-04T11:16:42.059Z,28.3
2018-11-04T11:17:42.888Z,27.7
2018-11-04T11:18:43.793Z,28.8
2018-11-04T11:19:44.739Z,27.5
2018-11-04T11:20:45.987Z,28.8
2018-11-04T11:21:46.809Z,27.6
2018-11-04T11:22:48.110Z,28.2
2018-11-04T11:23:48.922Z,28.1
2018-11-04T11:24:49.832Z,27.8
2018-11-04T11:25:50.755Z,28.1
2018-11-04T11:26:52.012Z,26.8
2018-11-04T11:27:53.623Z,26.9
2018-11-04T11:28:55.023Z,26.8
2018-11-04T11:29:56.717Z,27.7
2018-11-04T11:30:58.033Z,27.2
2018-11-04T11:31:59.323Z,26.9
2018-11-04T11:33:00.751Z,27.8
2018-11-04T11:34:02.096Z,27.3
2018-11-04T11:35:03.734Z,26.9
2018-11-04T11:36:05.266Z,25.5
2018-11-04T11:37:07.285Z,28.2
2018-11-04T11:38:08.798Z,27.1
2018-11-04T11:39:10.077Z,28.0
2018-11-04T11:40:11.466Z,25.6
2018-11-04T11:41:12.347Z,26.3
2018-11-04T11:42:13.227Z,27.8
2018-11-04T11:43:14.472Z,27.6
2018-11-04T11:44:15.326Z,27.0
2018-11-04T11:45:16.539Z,28.5
2018-11-04T11:46:17.448Z,27.5
2018-11-04T11:47:18.352Z,27.6
2018-11-04T11:48:19.252Z,27.6
2018-11-04T11:49:20.497Z,28.3
2018-11-04T11:50:21.373Z,27.2
2018-11-04T11:51:22.238Z,28.6
2018-11-04T11:52:23.505Z,28.4
2018-11-04T11:53:24.380Z,27.8
2018-11-04T11:54:25.275Z,27.1
2018-11-04T11:55:26.525Z,28.0
2018-11-04T11:56:27.370Z,27.8
2018-11-04T11:57:28.305Z,28.1
2018-11-04T11:58:29.278Z,28.1
2018-11-04T11:59:30.522Z,27.2
2018-11-04T12:00:31.380Z,28.1
2018-11-04T12:01:32.241Z,27.7
2018-11-04T12:02:33.471Z,27.9
2018-11-04T12:03:34.375Z,29.0
2018-11-04T12:04:35.965Z,27.8
2018-11-04T12:05:36.814Z,26.9
2018-11-04T12:06:38.042Z,27.0
2018-11-04T12:07:38.868Z,26.9
2018-11-04T12:08:39.755Z,27.7
2018-11-04T12:09:41.357Z,27.3
2018-11-04T12:10:42.845Z,27.2
2018-11-04T12:11:44.077Z,26.4
2018-11-04T12:12:44.940Z,27.3
2018-11-04T12:13:46.164Z,28.2
2018-11-04T12:14:48.387Z,28.2
2018-11-04T12:15:50.881Z,27.7
2018-11-04T12:16:53.358Z,26.7
2018-11-04T12:17:55.428Z,26.6
2018-11-04T12:18:57.431Z,27.3
2018-11-04T12:19:58.438Z,27.2
2018-11-04T12:20:59.292Z,27.5
2018-11-04T12:22:00.504Z,27.1
2018-11-04T12:23:01.340Z,28.3
2018-11-04T12:24:02.878Z,26.0
2018-11-04T12:25:03.735Z,26.1
2018-11-04T12:26:06.672Z,27.4
2018-11-04T12:27:07.375Z,25.6
2018-11-04T12:28:08.484Z,26.7
2018-11-04T12:29:09.264Z,25.8
2018-11-04T12:30:10.047Z,26.7
2018-11-04T12:31:10.886Z,26.4
2018-11-04T12:32:12.008Z,25.9
2018-11-04T12:33:12.801Z,27.6
2018-11-04T12:34:13.902Z,25.2
2018-11-04T12:35:15.118Z,25.4
2018-11-04T12:36:15.873Z,26.1
2018-11-04T12:37:17.003Z,25.4
2018-11-04T12:38:18.286Z,26.5
2018-11-04T12:39:19.524Z,26.2
2018-11-04T12:40:20.308Z,25.6
2018-11-04T12:41:21.453Z,24.6
2018-11-04T12:42:22.352Z,25.4
2018-11-04T12:43:23.502Z,25.1
2018-11-04T12:44:24.302Z,24.8
2018-11-04T12:45:25.522Z,25.6
2018-11-04T12:46:26.676Z,26.8
2018-11-04T12:47:28.059Z,25.7
2018-11-04T12:48:29.203Z,25.9
2018-11-04T12:49:30.324Z,25.3
2018-11-04T12:50:31.524Z,24.7
2018-11-04T12:51:32.374Z,24.4
2018-11-04T12:52:33.342Z,24.5
2018-11-04T12:53:34.595Z,24.4
2018-11-04T12:54:36.063Z,27.2
2018-11-04T12:55:37.273Z,25.2
2018-11-04T12:56:39.368Z,25.0
2018-11-04T12:57:41.889Z,24.2
2018-11-04T12:58:43.989Z,26.0
2018-11-04T12:59:45.901Z,26.1
2018-11-04T13:00:47.860Z,25.6
2018-11-04T13:01:50.028Z,24.3
2018-11-04T13:02:52.446Z,25.9
2018-11-04T13:03:53.430Z,25.0
2018-11-04T13:04:54.529Z,25.4
2018-11-04T13:05:55.328Z,26.3
2018-11-04T13:06:56.496Z,25.6
2018-11-04T13:07:57.930Z,25.1
2018-11-04T13:08:58.793Z,24.8
2018-11-04T13:10:00.020Z,24.7
2018-11-04T13:11:00.830Z,25.3
2018-11-04T13:12:01.925Z,26.2
2018-11-04T13:13:02.763Z,24.1
2018-11-04T13:14:03.810Z,24.3
2018-11-04T13:15:04.656Z,25.3
2018-11-04T13:16:05.464Z,25.6
2018-11-04T13:17:06.580Z,25.0
2018-11-04T13:18:07.508Z,25.0
2018-11-04T13:19:08.291Z,25.8
2018-11-04T13:20:09.237Z,25.2
2018-11-04T13:21:10.311Z,23.8
2018-11-04T13:22:12.278Z,25.3
2018-11-04T13:23:13.931Z,24.5
2018-11-04T13:24:15.846Z,23.9
2018-11-04T13:25:16.888Z,24.8
2018-11-04T13:26:17.830Z,24.7
2018-11-04T13:27:18.951Z,24.0
2018-11-04T13:28:20.338Z,24.5
2018-11-04T13:29:21.545Z,25.2
2018-11-04T13:30:22.924Z,23.9
2018-11-04T13:31:24.738Z,25.7
2018-11-04T13:32:26.900Z,24.1
2018-11-04T13:33:27.967Z,22.9
2018-11-04T13:34:28.829Z,23.7